createdAt,value
2018-12-02T00:01:46.840Z,95309.25
2018-12-02T00:04:16.392Z,95302.66
2018-12-02T00:06:46.354Z,95303.05
2018-12-02T00:09:15.962Z,95297.23
2018-12-02T00:11:45.899Z,95301.98
2018-12-02T00:14:15.456Z,95296.68
2018-12-02T00:16:45.184Z,95298.63
2018-12-02T00:19:21.086Z,95297.16
2018-12-02T00:21:50.406Z,95293.09
2018-12-02T00:24:19.764Z,95295.50
2018-12-02T00:26:49.627Z,95299.80
2018-12-02T00:29:19.053Z,95296.16
2018-12-02T00:31:48.586Z,95287.91
2018-12-02T00:34:18.628Z,95297.19
2018-12-02T00:36:48.109Z,95296.28
2018-12-02T00:39:17.513Z,95291.14
2018-12-02T00:41:47.124Z,95297.84
2018-12-02T00:44:16.832Z,95299.84
2018-12-02T00:46:46.663Z,95293.05
2018-12-02T00:49:15.965Z,95295.61
2018-12-02T00:51:45.328Z,95287.51
2018-12-02T00:54:14.835Z,95276.55
2018-12-02T00:56:44.622Z,95280.91
2018-12-02T00:59:14.179Z,95285.34
2018-12-02T01:01:43.725Z,95287.20
2018-12-02T01:04:13.155Z,95288.80
2018-12-02T01:06:42.590Z,95282.30
2018-12-02T01:09:12.454Z,95279.16
2018-12-02T01:11:42.201Z,95279.41
2018-12-02T01:14:11.727Z,95276.81
2018-12-02T01:16:40.999Z,95278.30
2018-12-02T01:19:10.673Z,95270.86
2018-12-02T01:21:40.047Z,95266.00
2018-12-02T01:24:10.186Z,95267.53
2018-12-02T01:26:39.765Z,95263.00
2018-12-02T01:29:09.604Z,95263.98
2018-12-02T01:31:39.124Z,95262.04
2018-12-02T01:34:08.529Z,95265.28
2018-12-02T01:36:38.672Z,95266.33
2018-12-02T01:39:08.640Z,95263.57
2018-12-02T01:41:38.492Z,95270.27
2018-12-02T01:44:08.049Z,95259.84
2018-12-02T01:46:37.546Z,95265.84
2018-12-02T01:49:07.239Z,95265.41
2018-12-02T01:51:36.528Z,95258.68
2018-12-02T01:54:06.377Z,95256.95
2018-12-02T01:56:36.304Z,95260.15
2018-12-02T01:59:06.444Z,95256.90
2018-12-02T02:01:36.026Z,95255.41
2018-12-02T02:04:06.022Z,95249.89
2018-12-02T02:06:35.833Z,95246.32
2018-12-02T02:09:07.262Z,95253.16
2018-12-02T02:11:37.320Z,95242.37
2018-12-02T02:14:07.111Z,95245.42
2018-12-02T02:16:36.513Z,95244.77
2018-12-02T02:19:06.181Z,95244.17
2018-12-02T02:21:35.621Z,95232.77
2018-12-02T02:24:05.602Z,95234.77
2018-12-02T02:26:34.949Z,95220.05
2018-12-02T02:29:05.211Z,95229.14
2018-12-02T02:31:34.878Z,95218.89
2018-12-02T02:34:04.595Z,95158.58
2018-12-02T02:36:34.020Z,95232.06
2018-12-02T02:39:03.630Z,95226.56
2018-12-02T02:41:33.274Z,95235.76
2018-12-02T02:44:02.940Z,95237.12
2018-12-02T02:46:32.225Z,95240.06
2018-12-02T02:49:01.830Z,95236.54
2018-12-02T02:51:31.082Z,95242.51
2018-12-02T02:54:00.723Z,95241.06
2018-12-02T02:56:30.530Z,95249.64
2018-12-02T02:59:00.231Z,95247.56
2018-12-02T03:01:32.943Z,95244.06
2018-12-02T03:04:02.444Z,95234.72
2018-12-02T03:06:32.079Z,95230.46
2018-12-02T03:09:01.876Z,95234.94
2018-12-02T03:11:31.300Z,95241.16
2018-12-02T03:14:00.884Z,95243.13
2018-12-02T03:16:30.264Z,95243.91
2018-12-02T03:18:59.691Z,95246.97
2018-12-02T03:21:28.951Z,95239.58
2018-12-02T03:23:58.245Z,95239.63
2018-12-02T03:26:27.830Z,95243.64
2018-12-02T03:28:57.484Z,95247.09
2018-12-02T03:31:26.947Z,95251.47
2018-12-02T03:33:56.444Z,95249.83
2018-12-02T03:36:26.336Z,95255.69
2018-12-02T03:38:55.857Z,95252.55
2018-12-02T03:41:25.474Z,95257.02
2018-12-02T03:43:55.092Z,95255.31
2018-12-02T03:46:24.456Z,95261.41
2018-12-02T03:48:53.869Z,95262.64
2018-12-02T03:51:23.984Z,95265.22
2018-12-02T03:53:53.407Z,95268.82
2018-12-02T03:56:23.094Z,95271.41
2018-12-02T03:58:52.952Z,95275.03
2018-12-02T04:01:22.728Z,95275.47
2018-12-02T04:03:52.280Z,95271.44
2018-12-02T04:06:22.073Z,95268.09
2018-12-02T04:08:51.765Z,95268.21
2018-12-02T04:11:21.314Z,95263.53
2018-12-02T04:13:50.676Z,95257.22
2018-12-02T04:16:20.090Z,95260.58
2018-12-02T04:18:49.683Z,95248.92
2018-12-02T04:21:19.160Z,95245.80
2018-12-02T04:23:48.713Z,95243.03
2018-12-02T04:26:18.457Z,95240.02
2018-12-02T04:28:48.008Z,95245.84
2018-12-02T04:31:17.439Z,95255.79
2018-12-02T04:33:47.062Z,95248.00
2018-12-02T04:36:16.725Z,95257.02
2018-12-02T04:38:46.593Z,95264.67
2018-12-02T04:41:16.182Z,95261.83
2018-12-02T04:43:45.609Z,95266.52
2018-12-02T04:46:15.360Z,95263.25
2018-12-02T04:48:44.775Z,95259.10
2018-12-02T04:51:14.153Z,95260.13
2018-12-02T04:53:43.644Z,95259.63
2018-12-02T04:56:13.255Z,95262.84
2018-12-02T04:58:42.989Z,95256.22
2018-12-02T05:01:12.777Z,95255.28
2018-12-02T05:03:42.352Z,95257.16
2018-12-02T05:06:11.948Z,95254.38
2018-12-02T05:08:41.987Z,95266.59
2018-12-02T05:11:11.524Z,95260.77
2018-12-02T05:13:40.890Z,95267.13
2018-12-02T05:16:10.444Z,95267.30
2018-12-02T05:18:39.740Z,95268.72
2018-12-02T05:21:09.417Z,95274.64
2018-12-02T05:23:39.310Z,95271.27
2018-12-02T05:26:08.708Z,95270.44
2018-12-02T05:28:38.010Z,95273.70
2018-12-02T05:31:07.619Z,95278.42
2018-12-02T05:33:36.852Z,95273.85
2018-12-02T05:36:06.785Z,95268.64
2018-12-02T05:38:36.415Z,95265.10
2018-12-02T05:41:06.239Z,95263.17
2018-12-02T05:43:36.033Z,95273.48
2018-12-02T05:46:07.565Z,95274.61
2018-12-02T05:48:37.026Z,95293.06
2018-12-02T05:51:06.898Z,95280.17
2018-12-02T05:53:36.568Z,95283.39
2018-12-02T05:56:06.409Z,95276.02
2018-12-02T05:58:35.668Z,95272.34
2018-12-02T06:01:05.457Z,95282.57
2018-12-02T06:03:34.983Z,95280.51
2018-12-02T06:06:04.325Z,95287.91
2018-12-02T06:08:33.909Z,95287.26
2018-12-02T06:11:03.404Z,95284.20
2018-12-02T06:13:32.741Z,95288.77
2018-12-02T06:16:01.976Z,95290.56
2018-12-02T06:18:31.663Z,95287.77
2018-12-02T06:21:01.169Z,95297.64
2018-12-02T06:23:30.805Z,95298.71
2018-12-02T06:26:00.514Z,95304.02
2018-12-02T06:28:30.086Z,95301.98
2018-12-02T06:30:59.471Z,95297.70
2018-12-02T06:33:28.733Z,95307.55
2018-12-02T06:35:58.264Z,95307.73
2018-12-02T06:38:27.856Z,95300.11
2018-12-02T06:40:57.200Z,95306.57
2018-12-02T06:43:26.476Z,95306.98
2018-12-02T06:45:55.751Z,95305.02
2018-12-02T06:48:25.684Z,95301.33
2018-12-02T06:50:55.207Z,95304.22
2018-12-02T06:53:24.877Z,95307.84
2018-12-02T06:56:03.208Z,95306.93
2018-12-02T06:58:45.300Z,95304.60
2018-12-02T07:02:24.862Z,95299.11
2018-12-02T07:04:54.492Z,95304.63
2018-12-02T07:07:23.918Z,95308.56
2018-12-02T07:09:53.380Z,95302.85
2018-12-02T07:12:23.207Z,95310.39
2018-12-02T07:14:52.567Z,95304.71
2018-12-02T07:17:24.377Z,95305.48
2018-12-02T07:19:58.441Z,95301.53
2018-12-02T07:25:18.279Z,95308.63
2018-12-02T07:27:47.816Z,95309.59
2018-12-02T07:30:17.320Z,95313.17
2018-12-02T07:32:47.149Z,95312.34
2018-12-02T07:35:35.587Z,95315.86
2018-12-02T07:38:31.008Z,95318.55
2018-12-02T07:41:18.152Z,95314.90
2018-12-02T07:43:47.456Z,95310.76
2018-12-02T07:46:16.960Z,95318.96
2018-12-02T07:48:46.537Z,95316.72
2018-12-02T07:51:16.420Z,95319.97
2018-12-02T07:53:46.080Z,95317.57
2018-12-02T07:56:15.624Z,95323.17
2018-12-02T07:58:46.269Z,95320.13
2018-12-02T08:01:16.084Z,95316.92
2018-12-02T08:03:45.729Z,95318.22
2018-12-02T08:06:15.196Z,95319.33
2018-12-02T08:08:44.704Z,95326.86
2018-12-02T08:11:14.327Z,95322.55
2018-12-02T08:13:43.558Z,95313.96
2018-12-02T08:16:13.043Z,95316.98
2018-12-02T08:18:42.801Z,95320.69
2018-12-02T08:21:12.544Z,95323.16
2018-12-02T08:23:42.098Z,95316.61
2018-12-02T08:26:11.587Z,95319.42
2018-12-02T08:28:41.303Z,95321.78
2018-12-02T08:31:10.731Z,95318.91
2018-12-02T08:33:40.236Z,95318.96
2018-12-02T08:36:09.896Z,95324.88
2018-12-02T08:38:39.322Z,95320.02
2018-12-02T08:41:08.749Z,95317.92
2018-12-02T08:43:38.149Z,95310.87
2018-12-02T08:46:07.954Z,95308.84
2018-12-02T08:48:37.749Z,95309.88
2018-12-02T08:51:07.557Z,95302.03
2018-12-02T08:53:37.231Z,95301.39
2018-12-02T08:56:06.993Z,95302.06
2018-12-02T08:58:36.566Z,95298.02
2018-12-02T09:01:05.980Z,95297.88
2018-12-02T09:03:35.533Z,95292.81
2018-12-02T09:06:05.318Z,95289.72
2018-12-02T09:08:34.696Z,95284.78
2018-12-02T09:11:04.110Z,95290.04
2018-12-02T09:13:33.498Z,95281.19
2018-12-02T09:16:03.060Z,95280.69
2018-12-02T09:18:32.644Z,95280.95
2018-12-02T09:21:02.249Z,95275.14
2018-12-02T09:23:31.760Z,95277.03
2018-12-02T09:26:01.456Z,95275.86
2018-12-02T09:28:31.072Z,95266.63
2018-12-02T09:31:00.816Z,95261.95
2018-12-02T09:33:30.124Z,95262.72
2018-12-02T09:35:59.611Z,95257.27
2018-12-02T09:38:28.983Z,95255.82
2018-12-02T09:40:58.273Z,95255.53
2018-12-02T09:43:27.637Z,95259.13
2018-12-02T09:45:57.308Z,95249.77
2018-12-02T09:48:27.117Z,95250.48
2018-12-02T09:50:56.717Z,95249.00
2018-12-02T09:53:26.400Z,95252.19
2018-12-02T09:55:56.415Z,95243.16
2018-12-02T09:58:27.936Z,95247.86
2018-12-02T10:01:00.889Z,95243.48
2018-12-02T10:03:30.450Z,95240.80
2018-12-02T10:06:00.037Z,95232.69
2018-12-02T10:08:29.304Z,95234.42
2018-12-02T10:10:59.130Z,95240.92
2018-12-02T10:13:28.924Z,95234.30
2018-12-02T10:15:58.642Z,95227.34
2018-12-02T10:18:28.216Z,95231.86
2018-12-02T10:20:57.872Z,95226.52
2018-12-02T10:23:27.387Z,95225.25
2018-12-02T10:25:57.036Z,95221.72
2018-12-02T10:28:26.491Z,95220.25
2018-12-02T10:30:56.151Z,95221.76
2018-12-02T10:33:25.805Z,95217.20
2018-12-02T10:35:55.168Z,95213.90
2018-12-02T10:38:24.577Z,95202.80
2018-12-02T10:40:54.086Z,95205.00
2018-12-02T10:43:23.690Z,95200.59
2018-12-02T10:45:53.329Z,95196.74
2018-12-02T10:48:22.956Z,95194.40
2018-12-02T10:50:52.671Z,95196.93
2018-12-02T10:53:23.013Z,95202.66
2018-12-02T10:55:54.101Z,95196.38
2018-12-02T10:58:25.652Z,95197.25
2018-12-02T11:01:01.608Z,95192.28
2018-12-02T11:03:31.824Z,95195.71
2018-12-02T11:06:01.471Z,95196.34
2018-12-02T11:08:30.816Z,95193.81
2018-12-02T11:11:00.277Z,95191.48
2018-12-02T11:13:30.198Z,95189.95
2018-12-02T11:15:59.911Z,95180.66
2018-12-02T11:18:29.475Z,95176.63
2018-12-02T11:20:58.852Z,95170.42
2018-12-02T11:23:28.312Z,95167.56
2018-12-02T11:25:57.887Z,95174.83
2018-12-02T11:28:27.505Z,95172.01
2018-12-02T11:30:57.148Z,95170.23
2018-12-02T11:33:26.649Z,95174.22
2018-12-02T11:35:56.152Z,95173.59
2018-12-02T11:38:25.700Z,95169.02
2018-12-02T11:40:55.176Z,95172.75
2018-12-02T11:43:24.770Z,95158.50
2018-12-02T11:45:54.396Z,95155.53
2018-12-02T11:48:23.902Z,95151.89
2018-12-02T11:50:53.736Z,95151.41
2018-12-02T11:53:23.107Z,95145.74
2018-12-02T11:55:52.499Z,95144.67
2018-12-02T11:58:22.074Z,95149.74
2018-12-02T12:00:51.651Z,95141.73
2018-12-02T12:03:20.942Z,95134.30
2018-12-02T12:05:50.532Z,95134.14
2018-12-02T12:08:19.821Z,95126.66
2018-12-02T12:10:49.127Z,95129.39
2018-12-02T12:13:18.757Z,95124.73
2018-12-02T12:15:48.700Z,95121.41
2018-12-02T12:18:18.287Z,95115.55
2018-12-02T12:20:47.765Z,95116.52
2018-12-02T12:23:20.595Z,95114.34
2018-12-02T12:25:50.112Z,95108.25
2018-12-02T12:28:19.872Z,95103.26
2018-12-02T12:30:49.272Z,95102.31
2018-12-02T12:33:18.609Z,95101.45
2018-12-02T12:35:49.726Z,95095.27
2018-12-02T12:38:19.091Z,95096.10
2018-12-02T12:40:50.129Z,95092.14
2018-12-02T12:43:25.216Z,95086.52
2018-12-02T12:45:55.129Z,95090.13
2018-12-02T12:48:24.780Z,95085.66
2018-12-02T12:50:54.512Z,95091.92
2018-12-02T12:53:24.419Z,95098.08
2018-12-02T12:55:54.231Z,95100.04
2018-12-02T12:58:24.051Z,95095.84
2018-12-02T13:00:54.047Z,95097.16
2018-12-02T13:03:23.845Z,95091.57
2018-12-02T13:05:53.488Z,95086.45
2018-12-02T13:08:23.225Z,95096.12
2018-12-02T13:10:52.999Z,95097.20
2018-12-02T13:13:22.894Z,95095.39
2018-12-02T13:15:53.093Z,95092.28
2018-12-02T13:18:22.949Z,95098.14
2018-12-02T13:20:54.441Z,95096.84
2018-12-02T13:23:24.429Z,95092.37
2018-12-02T13:25:54.448Z,95089.69
2018-12-02T13:28:24.530Z,95089.89
2018-12-02T13:33:49.012Z,95083.70
2018-12-02T13:36:19.561Z,95088.24
2018-12-02T13:38:50.235Z,95092.41
2018-12-02T13:41:20.115Z,95090.34
2018-12-02T13:43:49.764Z,95090.05
2018-12-02T13:46:19.771Z,95098.00
2018-12-02T13:48:49.687Z,95102.80
2018-12-02T13:51:19.425Z,95098.30
2018-12-02T13:53:54.092Z,95099.70
2018-12-02T13:56:23.797Z,95100.38
2018-12-02T13:58:53.324Z,95094.98
2018-12-02T14:01:23.005Z,95093.20
2018-12-02T14:03:52.685Z,95096.31
2018-12-02T14:06:22.475Z,95096.47
2018-12-02T14:08:51.854Z,95090.98
2018-12-02T14:11:21.781Z,95093.27
2018-12-02T14:13:51.705Z,95097.91
2018-12-02T14:17:27.002Z,95090.13
2018-12-02T14:19:56.585Z,95094.77
2018-12-02T14:22:26.227Z,95092.73
2018-12-02T14:24:55.797Z,95091.34
2018-12-02T14:27:25.342Z,95096.02
2018-12-02T14:29:56.362Z,95097.44
2018-12-02T14:32:26.625Z,95094.63
2018-12-02T14:34:56.021Z,95096.95
2018-12-02T14:37:25.349Z,95098.66
2018-12-02T14:39:55.223Z,95101.06
2018-12-02T14:42:24.587Z,95097.80
2018-12-02T14:44:54.180Z,95092.80
2018-12-02T14:47:23.653Z,95092.63
2018-12-02T14:49:53.312Z,95090.39
2018-12-02T14:52:22.953Z,95094.62
2018-12-02T14:54:52.613Z,95094.55
2018-12-02T14:57:22.132Z,95095.16
2018-12-02T14:59:51.756Z,95097.80
2018-12-02T15:02:21.265Z,95092.97
2018-12-02T15:04:50.839Z,95089.98
2018-12-02T15:07:20.374Z,95087.27
2018-12-02T15:09:49.920Z,95087.77
2018-12-02T15:12:19.324Z,95087.77
2018-12-02T15:14:48.924Z,95087.80
2018-12-02T15:17:18.394Z,95090.51
2018-12-02T15:19:47.875Z,95092.16
2018-12-02T15:22:17.341Z,95088.30
2018-12-02T15:24:46.736Z,95088.89
2018-12-02T15:27:16.569Z,95097.02
2018-12-02T15:29:46.128Z,95101.03
2018-12-02T15:32:15.777Z,95096.20
2018-12-02T15:34:45.340Z,95097.42
2018-12-02T15:37:14.773Z,95096.38
2018-12-02T15:39:44.214Z,95105.37
2018-12-02T15:42:13.789Z,95099.23
2018-12-02T15:44:43.365Z,95106.38
2018-12-02T15:47:12.816Z,95099.23
2018-12-02T15:49:42.274Z,95100.48
2018-12-02T15:52:11.897Z,95101.64
2018-12-02T15:54:41.713Z,95108.42
2018-12-02T15:57:11.060Z,95106.23
2018-12-02T15:59:40.787Z,95106.34
2018-12-02T16:02:10.332Z,95107.48
2018-12-02T16:04:39.777Z,95109.28
2018-12-02T16:07:09.323Z,95110.56
2018-12-02T16:09:38.792Z,95110.16
2018-12-02T16:12:08.381Z,95111.33
2018-12-02T16:14:37.992Z,95112.41
2018-12-02T16:17:07.366Z,95106.42
2018-12-02T16:19:36.803Z,95110.38
2018-12-02T16:22:06.363Z,95107.41
2018-12-02T16:24:35.916Z,95117.28
2018-12-02T16:27:05.518Z,95118.45
2018-12-02T16:29:34.891Z,95116.19
2018-12-02T16:32:04.673Z,95121.80
2018-12-02T16:34:33.990Z,95121.83
2018-12-02T16:37:03.652Z,95119.77
2018-12-02T16:39:32.971Z,95122.28
2018-12-02T16:42:02.552Z,95127.08
2018-12-02T16:44:31.920Z,95124.58
2018-12-02T16:47:01.233Z,95129.06
2018-12-02T16:49:30.885Z,95131.30
2018-12-02T16:52:00.616Z,95132.82
2018-12-02T16:54:30.336Z,95136.10
2018-12-02T16:57:00.675Z,95138.37
2018-12-02T16:59:32.286Z,95136.70
2018-12-02T17:02:05.232Z,95148.07
2018-12-02T17:04:32.819Z,95145.02
2018-12-02T17:07:02.049Z,95145.45
2018-12-02T17:09:31.463Z,95151.88
2018-12-02T17:12:01.888Z,95154.14
2018-12-02T17:14:31.348Z,95155.42
2018-12-02T17:17:00.864Z,95149.83
2018-12-02T17:19:30.545Z,95153.84
2018-12-02T17:22:00.241Z,95152.54
2018-12-02T17:24:29.906Z,95148.23
2018-12-02T17:26:59.459Z,95153.67
2018-12-02T17:29:28.900Z,95146.95
2018-12-02T17:32:01.882Z,95148.22
2018-12-02T17:34:31.165Z,95145.50
2018-12-02T17:37:00.709Z,95144.88
2018-12-02T17:39:31.937Z,95152.39
2018-12-02T17:42:06.900Z,95143.57
2018-12-02T17:44:36.595Z,95149.19
2018-12-02T17:47:06.603Z,95156.08
2018-12-02T17:49:36.099Z,95154.31
2018-12-02T17:52:06.809Z,95155.13
2018-12-02T17:54:36.243Z,95150.14
2018-12-02T17:57:05.956Z,95150.30
2018-12-02T17:59:35.483Z,95151.27
2018-12-02T18:02:04.860Z,95149.19
2018-12-02T18:04:34.577Z,95141.00
2018-12-02T18:07:04.094Z,95136.05
2018-12-02T18:09:33.450Z,95132.05
2018-12-02T18:12:02.805Z,95134.30
2018-12-02T18:14:32.649Z,95130.59
2018-12-02T18:17:02.308Z,95130.13
2018-12-02T18:19:31.782Z,95123.55
2018-12-02T18:22:01.363Z,95126.61
2018-12-02T18:24:31.003Z,95130.42
2018-12-02T18:27:00.604Z,95129.31
2018-12-02T18:29:30.115Z,95129.31
2018-12-02T18:31:59.558Z,95127.21
2018-12-02T18:34:30.623Z,95125.31
2018-12-02T18:37:00.496Z,95130.77
2018-12-02T18:39:30.083Z,95136.20
2018-12-02T18:41:59.378Z,95135.72
2018-12-02T18:44:29.191Z,95141.00
2018-12-02T18:46:58.863Z,95142.62
2018-12-02T18:49:28.647Z,95146.14
2018-12-02T18:51:58.238Z,95144.84
2018-12-02T18:54:28.551Z,95146.09
2018-12-02T18:56:57.385Z,95149.94
2018-12-02T18:59:26.886Z,95144.16
2018-12-02T19:01:56.347Z,95145.29
2018-12-02T19:04:25.938Z,95146.42
2018-12-02T19:06:58.524Z,95148.66
2018-12-02T19:09:25.076Z,95144.63
2018-12-02T19:11:54.479Z,95146.39
2018-12-02T19:14:24.224Z,95141.74
2018-12-02T19:16:53.948Z,95141.77
2018-12-02T19:19:23.717Z,95135.52
2018-12-02T19:21:53.352Z,95141.59
2018-12-02T19:24:23.093Z,95143.31
2018-12-02T19:26:52.430Z,95148.95
2018-12-02T19:29:21.941Z,95139.47
2018-12-02T19:31:51.577Z,95145.87
2018-12-02T19:34:20.989Z,95133.87
2018-12-02T19:36:52.901Z,95128.75
2018-12-02T19:39:22.300Z,95119.27
2018-12-02T19:41:51.652Z,95110.31
2018-12-02T19:44:21.314Z,95106.32
2018-12-02T19:46:50.633Z,95095.75
2018-12-02T19:49:20.186Z,95099.48
2018-12-02T19:51:49.748Z,95104.47
2018-12-02T19:54:19.714Z,95110.23
2018-12-02T19:56:49.453Z,95114.25
2018-12-02T19:59:19.136Z,95112.33
2018-12-02T20:01:49.030Z,95112.16
2018-12-02T20:04:18.487Z,95115.53
2018-12-02T20:06:48.256Z,95127.89
2018-12-02T20:09:17.566Z,95122.87
2018-12-02T20:11:46.926Z,95116.56
2018-12-02T20:14:16.563Z,95120.92
2018-12-02T20:16:46.039Z,95109.84
2018-12-02T20:19:20.737Z,95116.13
2018-12-02T20:21:50.477Z,95114.05
2018-12-02T20:24:25.218Z,95113.76
2018-12-02T20:26:54.509Z,95110.57
2018-12-02T20:29:24.214Z,95109.66
2018-12-02T20:31:54.238Z,95117.28
2018-12-02T20:34:23.839Z,95126.81
2018-12-02T20:36:53.257Z,95119.34
2018-12-02T20:39:22.724Z,95115.05
2018-12-02T20:41:52.021Z,95120.33
2018-12-02T20:44:21.704Z,95124.14
2018-12-02T20:46:51.525Z,95121.36
2018-12-02T20:49:20.925Z,95121.94
2018-12-02T20:51:50.438Z,95123.22
2018-12-02T20:54:20.094Z,95124.82
2018-12-02T20:56:49.821Z,95121.69
2018-12-02T20:59:19.469Z,95114.91
2018-12-02T21:01:48.967Z,95120.02
2018-12-02T21:04:18.737Z,95123.47
2018-12-02T21:06:48.126Z,95115.73
2018-12-02T21:09:17.471Z,95121.78
2018-12-02T21:11:46.839Z,95124.95
2018-12-02T21:14:16.636Z,95128.58
2018-12-02T21:16:45.943Z,95126.71
2018-12-02T21:19:15.567Z,95126.38
2018-12-02T21:21:45.322Z,95119.82
2018-12-02T21:24:14.882Z,95124.28
2018-12-02T21:26:44.689Z,95128.70
2018-12-02T21:29:14.124Z,95121.98
2018-12-02T21:31:43.444Z,95129.17
2018-12-02T21:34:13.422Z,95117.67
2018-12-02T21:36:42.823Z,95119.09
2018-12-02T21:39:12.226Z,95122.79
2018-12-02T21:41:41.564Z,95122.03
2018-12-02T21:44:11.297Z,95127.84
2018-12-02T21:46:40.687Z,95123.48
2018-12-02T21:49:10.248Z,95128.37
2018-12-02T21:51:40.088Z,95124.89
2018-12-02T21:54:10.084Z,95117.39
2018-12-02T21:56:39.944Z,95119.09
2018-12-02T21:59:09.473Z,95129.78
2018-12-02T22:01:39.005Z,95125.85
2018-12-02T22:04:08.657Z,95119.25
2018-12-02T22:06:38.018Z,95117.02
2018-12-02T22:09:08.600Z,95117.83
2018-12-02T22:11:38.501Z,95124.34
2018-12-02T22:14:07.965Z,95128.80
2018-12-02T22:16:37.245Z,95119.34
2018-12-02T22:19:06.935Z,95119.20
2018-12-02T22:21:36.628Z,95117.53
2018-12-02T22:24:06.378Z,95110.52
2018-12-02T22:26:35.737Z,95109.98
2018-12-02T22:29:05.422Z,95104.33
2018-12-02T22:31:34.908Z,95109.64
2018-12-02T22:34:04.583Z,95106.63
2018-12-02T22:36:34.069Z,95107.34
2018-12-02T22:39:03.464Z,95107.59
2018-12-02T22:41:33.096Z,95111.09
2018-12-02T22:44:02.506Z,95114.91
2018-12-02T22:46:32.137Z,95107.39
2018-12-02T22:49:01.662Z,95103.75
2018-12-02T22:51:31.133Z,95108.04
2018-12-02T22:54:00.524Z,95111.42
2018-12-02T22:56:30.252Z,95111.55
2018-12-02T22:58:59.708Z,95106.41
2018-12-02T23:01:34.383Z,95104.58
2018-12-02T23:04:03.965Z,95103.06
2018-12-02T23:06:33.358Z,95099.08
2018-12-02T23:09:02.713Z,95103.14
2018-12-02T23:11:32.249Z,95094.25
2018-12-02T23:14:01.861Z,95098.34
2018-12-02T23:16:31.644Z,95102.79
2018-12-02T23:19:01.286Z,95101.09
2018-12-02T23:21:30.593Z,95096.29
2018-12-02T23:24:00.162Z,95090.77
2018-12-02T23:26:29.998Z,95088.20
2018-12-02T23:28:59.664Z,95085.98
2018-12-02T23:31:29.338Z,95087.40
2018-12-02T23:33:59.693Z,95085.85
2018-12-02T23:36:28.205Z,95088.59
2018-12-02T23:38:57.620Z,95082.28
2018-12-02T23:41:27.324Z,95082.26
2018-12-02T23:43:56.805Z,95077.78
2018-12-02T23:46:26.416Z,95081.95
2018-12-02T23:48:56.000Z,95084.36
2018-12-02T23:51:25.513Z,95078.68
2018-12-02T23:53:54.883Z,95075.63
2018-12-02T23:56:24.567Z,95074.41
2018-12-02T23:58:54.364Z,95075.53
